Paramount Helsinki — 2CWB3 — position and weather

sailwx.info

Track history (hours):
 
Tides and Currents Weather Stations Pressure Air Temp Water Temp Dewpoint Dewpoint Depression Visibility Wind Speed Wind Dir Waves Ship Positions

Paramount Helsinki

Last reported at 2014-Jul-15 20:33 UTC. Time now 2014-Jul-26 15:10 UTC.
Position N 29°18' W 094°37'.
Warning: this ship's position is 10 days out of date.

Length 250 m; draft 8.4 m.

Type: Ship. MMSI: 235076275.

Date/timePositionNaut miles runAvg speedWind from/ knotsBaromVisibWave heightAir tempDewpointWater temp
2014-Jul-15 20:33N 29°18' W 094°37'1211.6
2014-Jul-15 19:33N 29°24' W 094°49'1111.0
2014-Jul-15 18:33N 29°33' W 094°55'10 9.8
2014-Jul-15 17:33N 29°42' W 095°00'6 5.8
2014-Jul-15 16:33N 29°45' W 095°06'1 1.2
2014-Jul-15 15:31N 29°44' W 095°08'0 0.0
2014-Jul-15 14:31N 29°44' W 095°08'0 0.0
2014-Jul-15 13:31N 29°44' W 095°08'0 0.0
2014-Jul-15 12:31N 29°44' W 095°08'0 0.0
2014-Jul-15 11:31N 29°44' W 095°08'0 0.0
2014-Jul-15 10:31N 29°44' W 095°08'0 0.0
2014-Jul-15 09:31N 29°44' W 095°08'0 0.0
2014-Jul-15 08:31N 29°44' W 095°08'0 0.0
2014-Jul-15 07:31N 29°44' W 095°08'0 0.0
2014-Jul-15 06:31N 29°44' W 095°08'0 0.0
2014-Jul-15 05:31N 29°44' W 095°08'0 0.0
2014-Jul-15 04:31N 29°44' W 095°08'0 0.0
2014-Jul-15 03:28N 29°44' W 095°08'0 0.0
2014-Jul-15 02:31N 29°44' W 095°08'0 0.0
2014-Jul-15 01:31N 29°44' W 095°08'0 0.0
2014-Jul-15 00:31N 29°44' W 095°08'0 0.0
2014-Jul-14 23:28N 29°44' W 095°08'0 0.0
2014-Jul-14 22:31N 29°44' W 095°08'0 0.0
2014-Jul-14 21:31N 29°44' W 095°08'0 0.0
2014-Jul-14 20:31N 29°44' W 095°08'0 0.0
2014-Jul-14 19:31N 29°44' W 095°08'0 0.0
2014-Jul-14 18:31N 29°44' W 095°08'0 0.0
2014-Jul-14 17:31N 29°44' W 095°08'0 0.0
2014-Jul-14 16:31N 29°44' W 095°08'0 0.0
2014-Jul-14 15:31N 29°44' W 095°08'0 0.0
2014-Jul-14 14:22N 29°44' W 095°08'0 0.0
2014-Jul-14 13:31N 29°44' W 095°08'0 0.0
2014-Jul-14 12:31N 29°44' W 095°08'0 0.0
2014-Jul-14 11:31N 29°44' W 095°08'0 0.0
2014-Jul-14 10:31N 29°44' W 095°08'0 0.0
2014-Jul-14 09:31N 29°44' W 095°08'0 0.0
2014-Jul-14 08:28N 29°44' W 095°08'0 0.0
2014-Jul-14 07:28N 29°44' W 095°08'0 0.0
2014-Jul-14 06:25N 29°44' W 095°08'0 0.0
2014-Jul-14 05:31N 29°44' W 095°08'0 0.0
2014-Jul-14 04:28N 29°44' W 095°08'0 0.0
2014-Jul-14 03:31N 29°44' W 095°08'0 0.0
2014-Jul-14 02:28N 29°44' W 095°08'0 0.0
2014-Jul-14 01:31N 29°44' W 095°08'0 0.0
2014-Jul-14 00:31N 29°44' W 095°08'0 0.0
2014-Jul-13 23:31N 29°44' W 095°08'0 0.0
2014-Jul-13 22:31N 29°44' W 095°08'0 0.0
2014-Jul-13 21:31N 29°44' W 095°08'0 0.0
2014-Jul-13 20:31N 29°44' W 095°08'0 0.0
2014-Jul-13 19:31N 29°44' W 095°08'0 0.0
2014-Jul-13 18:31N 29°44' W 095°08'0 0.0
2014-Jul-13 17:31N 29°44' W 095°08'0 0.0
2014-Jul-13 16:31N 29°44' W 095°08'2 2.3
2014-Jul-13 15:33N 29°46' W 095°05'7 7.4
2014-Jul-13 14:33N 29°41' W 094°59'10 9.8
2014-Jul-13 13:33N 29°32' W 094°54'1211.7
2014-Jul-13 12:33N 29°22' W 094°48'1212.1
2014-Jul-13 11:33N 29°17' W 094°35'  
Track history (hours):
 
Tides and Currents Weather Stations Pressure Air Temp Water Temp Dewpoint Dewpoint Depression Visibility Wind Speed Wind Dir Waves Ship Positions

Paramount Helsinki

Last reported at 2014-Jul-15 20:33 UTC. Time now 2014-Jul-26 15:10 UTC.
Position N 29°18' W 094°37'.
Warning: this ship's position is 10 days out of date.

Length 250 m; draft 8.4 m.

Type: Ship. MMSI: 235076275.

Date/timePositionNaut miles runAvg speedWind from/ knotsBaromVisibWave heightAir tempDewpointWater temp
2014-Jul-15 20:33N 29°18' W 094°37'1211.6
2014-Jul-15 19:33N 29°24' W 094°49'1111.0
2014-Jul-15 18:33N 29°33' W 094°55'10 9.8
2014-Jul-15 17:33N 29°42' W 095°00'6 5.8
2014-Jul-15 16:33N 29°45' W 095°06'1 1.2
2014-Jul-15 15:31N 29°44' W 095°08'0 0.0
2014-Jul-15 14:31N 29°44' W 095°08'0 0.0
2014-Jul-15 13:31N 29°44' W 095°08'0 0.0
2014-Jul-15 12:31N 29°44' W 095°08'0 0.0
2014-Jul-15 11:31N 29°44' W 095°08'0 0.0
2014-Jul-15 10:31N 29°44' W 095°08'0 0.0
2014-Jul-15 09:31N 29°44' W 095°08'0 0.0
2014-Jul-15 08:31N 29°44' W 095°08'0 0.0
2014-Jul-15 07:31N 29°44' W 095°08'0 0.0
2014-Jul-15 06:31N 29°44' W 095°08'0 0.0
2014-Jul-15 05:31N 29°44' W 095°08'0 0.0
2014-Jul-15 04:31N 29°44' W 095°08'0 0.0
2014-Jul-15 03:28N 29°44' W 095°08'0 0.0
2014-Jul-15 02:31N 29°44' W 095°08'0 0.0
2014-Jul-15 01:31N 29°44' W 095°08'0 0.0
2014-Jul-15 00:31N 29°44' W 095°08'0 0.0
2014-Jul-14 23:28N 29°44' W 095°08'0 0.0
2014-Jul-14 22:31N 29°44' W 095°08'0 0.0
2014-Jul-14 21:31N 29°44' W 095°08'0 0.0
2014-Jul-14 20:31N 29°44' W 095°08'0 0.0
2014-Jul-14 19:31N 29°44' W 095°08'0 0.0
2014-Jul-14 18:31N 29°44' W 095°08'0 0.0
2014-Jul-14 17:31N 29°44' W 095°08'0 0.0
2014-Jul-14 16:31N 29°44' W 095°08'0 0.0
2014-Jul-14 15:31N 29°44' W 095°08'0 0.0
2014-Jul-14 14:22N 29°44' W 095°08'0 0.0
2014-Jul-14 13:31N 29°44' W 095°08'0 0.0
2014-Jul-14 12:31N 29°44' W 095°08'0 0.0
2014-Jul-14 11:31N 29°44' W 095°08'0 0.0
2014-Jul-14 10:31N 29°44' W 095°08'0 0.0
2014-Jul-14 09:31N 29°44' W 095°08'0 0.0
2014-Jul-14 08:28N 29°44' W 095°08'0 0.0
2014-Jul-14 07:28N 29°44' W 095°08'0 0.0
2014-Jul-14 06:25N 29°44' W 095°08'0 0.0
2014-Jul-14 05:31N 29°44' W 095°08'0 0.0
2014-Jul-14 04:28N 29°44' W 095°08'0 0.0
2014-Jul-14 03:31N 29°44' W 095°08'0 0.0
2014-Jul-14 02:28N 29°44' W 095°08'0 0.0
2014-Jul-14 01:31N 29°44' W 095°08'0 0.0
2014-Jul-14 00:31N 29°44' W 095°08'0 0.0
2014-Jul-13 23:31N 29°44' W 095°08'0 0.0
2014-Jul-13 22:31N 29°44' W 095°08'0 0.0
2014-Jul-13 21:31N 29°44' W 095°08'0 0.0
2014-Jul-13 20:31N 29°44' W 095°08'0 0.0
2014-Jul-13 19:31N 29°44' W 095°08'0 0.0
2014-Jul-13 18:31N 29°44' W 095°08'0 0.0
2014-Jul-13 17:31N 29°44' W 095°08'0 0.0
2014-Jul-13 16:31N 29°44' W 095°08'2 2.3
2014-Jul-13 15:33N 29°46' W 095°05'7 7.4
2014-Jul-13 14:33N 29°41' W 094°59'10 9.8
2014-Jul-13 13:33N 29°32' W 094°54'1211.7
2014-Jul-13 12:33N 29°22' W 094°48'1212.1
2014-Jul-13 11:33N 29°17' W 094°35'  

Dump ship's entire track history